Time;durP1;ratioP1;P1;durP2;ratioP2;P2;SDS_P1;SDS_P2;PMS_P1;PMS_P2;Temp;Humidity;BMP_temperature;BMP_pressure;BME280_temperature;BME280_humidity;BME280_pressure;Samples;Min_cycle;Max_cycle;Signal;HPM_P1;HPM_P2
2022/10/11 00:01:01;;;;;;;23.50;3.35;;;7.60;99.90;;;;;;4998269;28;20053;-91
2022/10/11 00:03:27;;;;;;;20.13;2.80;;;7.50;99.90;;;;;;4998035;28;20045;-90
2022/10/11 00:05:54;;;;;;;19.52;3.38;;;7.50;99.90;;;;;;4998196;28;20037;-91
2022/10/11 00:08:20;;;;;;;24.10;2.70;;;7.40;99.90;;;;;;4998066;28;20096;-91
2022/10/11 00:10:58;;;;;;;12.15;2.55;;;7.40;99.90;;;;;;4998147;28;20072;-91
2022/10/11 00:13:24;;;;;;;22.58;2.95;;;7.40;99.90;;;;;;4997257;28;20088;-91
2022/10/11 00:15:50;;;;;;;14.75;2.30;;;7.30;99.90;;;;;;4997072;28;20418;-92
2022/10/11 00:18:15;;;;;;;12.23;3.15;;;7.30;99.90;;;;;;4997602;28;20109;-91
2022/10/11 00:20:41;;;;;;;20.05;2.70;;;7.30;99.90;;;;;;4997597;28;20080;-90
2022/10/11 00:23:06;;;;;;;15.93;2.50;;;7.30;99.90;;;;;;4997887;28;20108;-91
2022/10/11 00:25:32;;;;;;;10.23;2.92;;;7.30;99.90;;;;;;4996521;28;20068;-90
2022/10/11 00:27:58;;;;;;;10.00;3.05;;;7.20;99.90;;;;;;4997023;28;20479;-91
2022/10/11 00:30:24;;;;;;;16.25;3.60;;;7.20;99.90;;;;;;4997343;28;20034;-91
2022/10/11 00:32:49;;;;;;;16.02;3.10;;;7.20;99.90;;;;;;5014673;28;20526;-91
2022/10/11 00:35:15;;;;;;;14.07;3.15;;;7.10;99.90;;;;;;4997509;28;20057;-91
2022/10/11 00:37:41;;;;;;;17.80;3.40;;;7.00;99.90;;;;;;4997031;28;20022;-90
2022/10/11 00:40:12;;;;;;;16.05;3.17;;;7.00;99.90;;;;;;4997569;28;20018;-91
2022/10/11 00:42:38;;;;;;;18.23;2.65;;;6.90;99.90;;;;;;4997148;28;20026;-91
2022/10/11 00:45:25;;;;;;;17.17;4.38;;;6.90;99.90;;;;;;4996468;28;20044;-91
2022/10/11 00:47:56;;;;;;;19.75;4.13;;;6.80;99.90;;;;;;4994630;28;20026;-91
2022/10/11 00:50:23;;;;;;;10.05;3.08;;;6.80;99.90;;;;;;4996590;28;20036;-91
2022/10/11 00:52:54;;;;;;;17.60;2.60;;;6.80;99.90;;;;;;4996748;28;20018;-91
2022/10/11 00:55:21;;;;;;;;;;;6.80;99.90;;;;;;4996955;28;20018;-90
2022/10/11 00:57:51;;;;;;;9.05;2.17;;;6.80;99.90;;;;;;4997086;28;19959;-91
2022/10/11 01:00:18;;;;;;;11.85;2.72;;;6.70;99.90;;;;;;4996419;28;20094;-92
2022/10/11 01:02:44;;;;;;;10.23;3.10;;;6.70;99.90;;;;;;4996129;28;20036;-91
2022/10/11 01:05:13;;;;;;;19.95;4.15;;;6.60;99.90;;;;;;4996532;28;20470;-91
2022/10/11 01:07:40;;;;;;;14.00;2.70;;;6.60;99.90;;;;;;4996768;28;20616;-90
2022/10/11 01:10:06;;;;;;;15.45;3.00;;;6.50;99.90;;;;;;4996429;28;20064;-91
2022/10/11 01:12:31;;;;;;;15.18;3.15;;;6.40;99.90;;;;;;4996218;28;20045;-91
2022/10/11 01:15:06;;;;;;;15.40;2.58;;;6.40;99.90;;;;;;4995972;28;20041;-91
2022/10/11 01:17:59;;;;;;;16.10;2.58;;;6.40;99.90;;;;;;4993673;28;20525;-91
2022/10/11 01:20:43;;;;;;;22.45;3.28;;;6.30;99.90;;;;;;4995517;28;20040;-91
2022/10/11 01:23:21;;;;;;;11.98;3.20;;;6.30;99.90;;;;;;4995968;28;20089;-91
2022/10/11 01:26:24;;;;;;;21.13;4.18;;;6.30;99.90;;;;;;4995850;28;20105;-90
2022/10/11 01:29:14;;;;;;;14.32;4.35;;;6.30;99.90;;;;;;4995863;28;20029;-90
2022/10/11 01:31:52;;;;;;;16.33;2.80;;;6.20;99.90;;;;;;4994730;28;20032;-90
2022/10/11 01:34:23;;;;;;;14.52;2.90;;;6.20;99.90;;;;;;4994451;28;20492;-91
2022/10/11 01:36:53;;;;;;;;;;;6.10;99.90;;;;;;4996384;28;20030;-90
2022/10/11 01:40:07;;;;;;;15.73;3.75;;;6.10;99.90;;;;;;4996498;28;19916;-90
2022/10/11 01:42:36;;;;;;;18.50;3.20;;;6.00;99.90;;;;;;4937058;29;20030;-90
2022/10/11 01:45:03;;;;;;;18.02;2.75;;;5.90;99.90;;;;;;4936752;29;20062;-89
2022/10/11 01:47:29;;;;;;;14.88;2.30;;;5.90;99.90;;;;;;4953215;29;20024;-90
2022/10/11 01:50:00;;;;;;;15.40;3.00;;;5.90;99.90;;;;;;4953577;29;20557;-91
2022/10/11 01:52:30;;;;;;;15.20;2.80;;;5.90;99.90;;;;;;4958322;29;20273;-89
2022/10/11 01:55:22;;;;;;;13.75;3.50;;;5.80;99.90;;;;;;4960569;29;20126;-92
2022/10/11 01:58:15;;;;;;;12.52;3.13;;;5.80;99.90;;;;;;4953694;29;20383;-88
2022/10/11 02:01:09;;;;;;;16.90;3.13;;;5.80;99.90;;;;;;4968901;28;20038;-90
2022/10/11 02:03:56;;;;;;;17.42;3.45;;;5.70;99.90;;;;;;4970846;28;20051;-90
2022/10/11 02:06:42;;;;;;;15.20;3.28;;;5.70;99.90;;;;;;4952704;29;20036;-91
2022/10/11 02:09:30;;;;;;;16.92;2.75;;;5.70;99.90;;;;;;4936827;29;20019;-93
2022/10/11 02:12:04;;;;;;;22.83;5.07;;;5.70;99.90;;;;;;4934561;29;20058;-91
2022/10/11 02:14:35;;;;;;;16.52;4.10;;;5.70;99.90;;;;;;4936452;29;20035;-93
2022/10/11 02:17:06;;;;;;;11.35;2.55;;;5.70;99.90;;;;;;4978677;28;20038;-91
2022/10/11 02:19:37;;;;;;;10.68;2.63;;;5.70;99.90;;;;;;4993478;28;20022;-93
2022/10/11 02:22:08;;;;;;;15.07;3.03;;;5.70;99.90;;;;;;4995504;28;20088;-91
2022/10/11 02:24:36;;;;;;;19.08;3.47;;;5.60;99.90;;;;;;4995660;28;20034;-91
2022/10/11 02:27:05;;;;;;;14.25;2.08;;;5.60;99.90;;;;;;4995775;28;20037;-92
2022/10/11 02:29:34;;;;;;;11.85;3.15;;;5.60;99.90;;;;;;4995429;28;20048;-91
2022/10/11 02:32:01;;;;;;;12.05;2.70;;;5.60;99.90;;;;;;4995232;28;20080;-91
2022/10/11 02:34:31;;;;;;;19.83;3.22;;;5.60;99.90;;;;;;4995203;28;20097;-90
2022/10/11 02:37:15;;;;;;;18.42;3.13;;;5.60;99.90;;;;;;4995434;28;20026;-91
2022/10/11 02:39:52;;;;;;;17.83;3.38;;;5.50;99.90;;;;;;4994641;28;20030;-91
2022/10/11 02:42:25;;;;;;;14.98;2.67;;;5.40;99.90;;;;;;5026186;28;20026;-91
2022/10/11 02:45:06;;;;;;;13.95;3.25;;;5.40;99.90;;;;;;4992801;28;20128;-92
2022/10/11 02:47:32;;;;;;;8.45;2.40;;;5.30;99.90;;;;;;4992740;28;20136;-91
2022/10/11 02:49:58;;;;;;;11.02;2.40;;;5.20;99.90;;;;;;4998013;28;20030;-89
2022/10/11 02:52:24;;;;;;;13.55;4.22;;;5.20;99.90;;;;;;4998630;28;20167;-90
2022/10/11 02:54:50;;;;;;;10.73;3.50;;;5.20;99.90;;;;;;4998670;28;20041;-89
2022/10/11 02:57:16;;;;;;;10.23;2.20;;;5.10;99.90;;;;;;4998927;28;20018;-89
2022/10/11 02:59:42;;;;;;;11.82;2.63;;;5.10;99.90;;;;;;4999001;28;20096;-90
2022/10/11 03:02:07;;;;;;;19.00;4.30;;;5.10;99.90;;;;;;5009955;28;20018;-91
2022/10/11 03:04:33;;;;;;;17.95;3.72;;;5.10;99.90;;;;;;4998634;28;20132;-90
2022/10/11 03:06:59;;;;;;;10.45;2.72;;;5.10;99.90;;;;;;4998525;28;20057;-91
2022/10/11 03:09:24;;;;;;;17.98;3.05;;;5.20;99.90;;;;;;4998226;28;20080;-91
2022/10/11 03:11:50;;;;;;;13.30;4.55;;;5.10;99.90;;;;;;4998266;28;20021;-91
2022/10/11 03:14:15;;;;;;;6.70;2.70;;;5.20;99.90;;;;;;4998570;28;20037;-91
2022/10/11 03:16:41;;;;;;;15.30;2.47;;;5.10;99.90;;;;;;4998332;28;20014;-92
2022/10/11 03:19:07;;;;;;;19.20;2.92;;;5.10;99.90;;;;;;4998105;28;20498;-92
2022/10/11 03:21:32;;;;;;;10.35;2.20;;;5.10;99.90;;;;;;4998126;28;20021;-92
2022/10/11 03:23:59;;;;;;;12.10;3.22;;;5.10;99.90;;;;;;5015414;28;20025;-91
2022/10/11 03:26:26;;;;;;;11.95;3.15;;;5.10;99.90;;;;;;4998227;28;20029;-90
2022/10/11 03:28:52;;;;;;;13.40;2.85;;;5.00;99.90;;;;;;4995422;28;20021;-89
2022/10/11 03:31:19;;;;;;;9.05;2.30;;;5.00;99.90;;;;;;4997856;28;20391;-91
2022/10/11 03:33:45;;;;;;;8.73;2.38;;;4.90;99.90;;;;;;4997944;28;20018;-91
2022/10/11 03:36:10;;;;;;;13.02;2.42;;;4.90;99.90;;;;;;4998143;28;20036;-91
2022/10/11 03:38:36;;;;;;;19.17;2.67;;;4.90;99.90;;;;;;4997762;28;20014;-91
2022/10/11 03:41:02;;;;;;;9.00;2.40;;;4.80;99.90;;;;;;4997688;28;20029;-90
2022/10/11 03:43:27;;;;;;;9.40;2.42;;;4.80;99.90;;;;;;4997954;28;20471;-89
2022/10/11 03:45:53;;;;;;;12.85;3.00;;;4.80;99.90;;;;;;4997694;28;20065;-91
2022/10/11 03:48:19;;;;;;;11.15;2.80;;;4.70;99.90;;;;;;4997868;28;20590;-91
2022/10/11 03:50:45;;;;;;;16.98;2.78;;;4.70;99.90;;;;;;4997358;28;20049;-90
2022/10/11 03:53:10;;;;;;;10.30;3.00;;;4.70;99.90;;;;;;4997087;28;20064;-91
2022/10/11 03:55:40;;;;;;;15.88;3.20;;;4.60;99.90;;;;;;4997432;28;20475;-91
2022/10/11 03:58:07;;;;;;;10.77;3.38;;;4.60;99.90;;;;;;4997782;28;20056;-92
2022/10/11 04:00:33;;;;;;;11.95;3.55;;;4.60;99.90;;;;;;4992209;28;20017;-92
2022/10/11 04:02:59;;;;;;;17.85;4.10;;;4.50;99.90;;;;;;4997122;28;20096;-90
2022/10/11 04:05:24;;;;;;;10.48;4.00;;;4.50;99.90;;;;;;4997172;28;20483;-90
2022/10/11 04:07:50;;;;;;;12.63;4.25;;;4.50;99.90;;;;;;4997467;28;20117;-91
2022/10/11 04:10:16;;;;;;;12.77;3.28;;;4.50;99.90;;;;;;4997728;28;20075;-92
2022/10/11 04:12:42;;;;;;;19.40;3.72;;;4.50;99.90;;;;;;4997589;28;20029;-93
2022/10/11 04:15:12;;;;;;;11.88;3.38;;;4.50;99.90;;;;;;4997213;28;20018;-92
2022/10/11 04:17:38;;;;;;;16.08;3.90;;;4.60;99.90;;;;;;5014555;28;20028;-91
2022/10/11 04:20:05;;;;;;;18.52;4.00;;;4.60;99.90;;;;;;4997158;28;20034;-91
2022/10/11 04:22:31;;;;;;;15.77;4.30;;;4.70;99.90;;;;;;4996850;28;20018;-90
2022/10/11 04:24:57;;;;;;;19.60;6.00;;;4.70;99.90;;;;;;4996904;28;20038;-92
2022/10/11 04:27:22;;;;;;;17.48;4.90;;;4.70;99.90;;;;;;4997138;28;20124;-91
2022/10/11 04:29:48;;;;;;;26.23;5.55;;;4.70;99.90;;;;;;4996872;28;20032;-91
2022/10/11 04:32:14;;;;;;;22.80;4.82;;;4.80;99.90;;;;;;4996860;28;20040;-91
2022/10/11 04:34:39;;;;;;;16.60;4.50;;;4.80;99.90;;;;;;5014025;28;20595;-91
2022/10/11 04:37:05;;;;;;;17.80;4.53;;;4.80;99.90;;;;;;5014189;28;20033;-91
2022/10/11 04:39:31;;;;;;;16.95;4.15;;;4.80;99.90;;;;;;4996518;28;20061;-91
2022/10/11 04:41:56;;;;;;;18.52;4.00;;;4.90;99.90;;;;;;4996674;28;20040;-90
2022/10/11 04:44:22;;;;;;;12.07;3.72;;;4.90;99.90;;;;;;4996532;28;20129;-89
2022/10/11 04:46:48;;;;;;;11.60;3.70;;;4.90;99.90;;;;;;4996637;28;20033;-91
2022/10/11 04:49:14;;;;;;;15.80;4.00;;;4.90;99.90;;;;;;4996321;28;20041;-90
2022/10/11 04:51:39;;;;;;;15.32;3.80;;;4.90;99.90;;;;;;4996132;28;20021;-90
2022/10/11 04:54:05;;;;;;;18.00;5.28;;;4.90;99.90;;;;;;4996454;28;20033;-90
2022/10/11 04:56:31;;;;;;;11.95;4.15;;;4.80;99.90;;;;;;4996249;28;20017;-91
2022/10/11 04:58:56;;;;;;;15.45;4.57;;;4.80;99.90;;;;;;4995825;28;20026;-92
2022/10/11 05:01:22;;;;;;;20.08;4.50;;;4.70;99.90;;;;;;4995130;28;20037;-91
2022/10/11 05:03:48;;;;;;;16.23;3.60;;;4.70;99.90;;;;;;4995898;28;20157;-91
2022/10/11 05:06:14;;;;;;;14.20;4.15;;;4.70;99.90;;;;;;4995901;28;20037;-89
2022/10/11 05:08:40;;;;;;;11.82;3.88;;;4.60;99.90;;;;;;4995959;28;20025;-90
2022/10/11 05:11:09;;;;;;;20.35;4.70;;;4.60;99.90;;;;;;4995956;28;20033;-90
2022/10/11 05:13:35;;;;;;;12.30;3.75;;;4.70;99.90;;;;;;4995065;28;20015;-90
2022/10/11 05:16:02;;;;;;;14.30;4.05;;;4.60;99.90;;;;;;4995724;28;20360;-90
2022/10/11 05:18:28;;;;;;;17.98;4.22;;;4.60;99.90;;;;;;4996463;28;20095;-91
2022/10/11 05:21:07;;;;;;;14.15;3.95;;;4.70;99.90;;;;;;4995850;28;20052;-90
2022/10/11 05:23:35;;;;;;;19.17;3.58;;;4.70;99.90;;;;;;4996311;28;20489;-90
2022/10/11 05:26:01;;;;;;;26.13;5.40;;;4.70;99.90;;;;;;5004562;28;20490;-90
2022/10/11 05:28:28;;;;;;;14.40;4.35;;;4.60;99.90;;;;;;5012995;28;20030;-92
2022/10/11 05:30:55;;;;;;;14.60;3.65;;;4.60;99.90;;;;;;4995352;28;20037;-91
2022/10/11 05:33:21;;;;;;;20.42;3.47;;;4.60;99.90;;;;;;5012962;28;20026;-90
2022/10/11 05:35:47;;;;;;;8.52;2.88;;;4.50;99.90;;;;;;4995124;28;20029;-90
2022/10/11 05:38:13;;;;;;;13.13;3.25;;;4.50;99.90;;;;;;4995687;28;20112;-89
2022/10/11 05:40:39;;;;;;;10.55;3.08;;;4.40;99.90;;;;;;4995438;28;20485;-91
2022/10/11 05:43:05;;;;;;;13.77;2.75;;;4.40;99.90;;;;;;4995118;28;20026;-92
2022/10/11 05:45:34;;;;;;;10.02;3.40;;;4.40;99.90;;;;;;4995359;28;20030;-90
2022/10/11 05:48:00;;;;;;;11.18;4.35;;;4.40;99.90;;;;;;4995438;28;20103;-91
2022/10/11 05:50:26;;;;;;;16.13;4.45;;;4.40;99.90;;;;;;4996047;28;20057;-90
2022/10/11 05:52:51;;;;;;;18.15;5.55;;;4.40;99.90;;;;;;4995901;28;20446;-90
2022/10/11 05:55:17;;;;;;;22.77;5.57;;;4.30;99.90;;;;;;4995896;28;20030;-90
2022/10/11 05:57:46;;;;;;;26.33;5.82;;;4.30;99.90;;;;;;4996162;28;20072;-89
2022/10/11 06:00:12;;;;;;;19.88;5.88;;;4.30;99.90;;;;;;5007050;28;20045;-90
2022/10/11 06:02:38;;;;;;;13.25;4.75;;;4.20;99.90;;;;;;5003088;28;20049;-90
2022/10/11 06:05:04;;;;;;;17.17;5.95;;;4.20;99.90;;;;;;4999773;28;20087;-89
2022/10/11 06:07:29;;;;;;;18.42;4.70;;;4.20;99.90;;;;;;5009077;28;20026;-89
2022/10/11 06:09:55;;;;;;;19.25;5.90;;;4.10;99.90;;;;;;5008800;28;20125;-90
2022/10/11 06:12:21;;;;;;;14.63;4.25;;;4.20;99.90;;;;;;5007759;28;20022;-91
2022/10/11 06:14:47;;;;;;;15.57;4.80;;;4.20;99.90;;;;;;5012137;28;20041;-89
2022/10/11 06:17:12;;;;;;;15.88;5.57;;;4.20;99.90;;;;;;5005855;28;20055;-90
2022/10/11 06:19:38;;;;;;;14.70;4.85;;;4.20;99.90;;;;;;5011750;28;20060;-90
2022/10/11 06:22:04;;;;;;;14.88;4.90;;;4.20;99.90;;;;;;5012485;28;20033;-90
2022/10/11 06:24:30;;;;;;;13.00;4.60;;;4.10;99.90;;;;;;5024290;28;20060;-90
2022/10/11 06:26:55;;;;;;;21.90;4.68;;;4.10;99.90;;;;;;5010381;28;20084;-90
2022/10/11 06:29:21;;;;;;;10.60;4.05;;;4.10;99.90;;;;;;5004826;28;20518;-89
2022/10/11 06:31:48;;;;;;;18.60;4.50;;;4.10;99.90;;;;;;5019573;28;20038;-90
2022/10/11 06:34:14;;;;;;;40.92;5.88;;;4.10;99.90;;;;;;5008504;28;20174;-88
2022/10/11 06:36:40;;;;;;;11.32;4.00;;;4.10;99.90;;;;;;4999887;28;20066;-90
2022/10/11 06:39:06;;;;;;;17.30;4.03;;;4.00;99.90;;;;;;5002476;28;20022;-89
2022/10/11 06:41:32;;;;;;;14.35;4.63;;;4.00;99.90;;;;;;5001736;28;20049;-89
2022/10/11 06:43:58;;;;;;;12.50;4.03;;;4.00;99.90;;;;;;5000297;28;20026;-90
2022/10/11 06:46:26;;;;;;;11.70;3.90;;;4.00;99.90;;;;;;5000344;28;20057;-89
2022/10/11 06:48:52;;;;;;;10.13;4.18;;;4.00;99.90;;;;;;5000515;28;20010;-90
2022/10/11 06:51:20;;;;;;;16.67;4.65;;;4.00;99.90;;;;;;5001141;28;20046;-90
2022/10/11 06:53:50;;;;;;;15.65;4.00;;;4.00;99.90;;;;;;5013568;28;20030;-89
2022/10/11 06:56:17;;;;;;;12.90;4.18;;;3.90;99.90;;;;;;5015982;28;20022;-90
2022/10/11 06:58:42;;;;;;;9.40;3.42;;;3.90;99.90;;;;;;5016221;28;20025;-91
2022/10/11 07:01:11;;;;;;;12.70;4.15;;;3.90;99.90;;;;;;5004857;28;20494;-93
2022/10/11 07:03:37;;;;;;;12.20;4.38;;;4.00;99.90;;;;;;5008799;28;20049;-91
2022/10/11 07:06:08;;;;;;;15.80;6.00;;;4.00;99.90;;;;;;5009209;28;20041;-93
2022/10/11 07:08:34;;;;;;;17.63;5.15;;;4.00;99.90;;;;;;5005700;28;20037;-91
2022/10/11 07:11:09;;;;;;;12.57;4.53;;;4.00;99.90;;;;;;5012744;28;20022;-92
2022/10/11 07:13:36;;;;;;;14.52;4.65;;;4.00;99.90;;;;;;4999275;28;20022;-92
2022/10/11 07:16:02;;;;;;;11.70;4.35;;;4.00;99.90;;;;;;5001014;28;20092;-93
2022/10/11 07:18:28;;;;;;;11.55;4.50;;;4.00;99.90;;;;;;5000659;28;20115;-88
2022/10/11 07:20:54;;;;;;;15.70;4.90;;;4.00;99.90;;;;;;5000269;28;20026;-91
2022/10/11 07:23:20;;;;;;;12.80;4.53;;;4.00;99.90;;;;;;4991161;28;20383;-91
2022/10/11 07:25:46;;;;;;;14.73;5.38;;;4.00;99.90;;;;;;4988568;28;20061;-91
2022/10/11 07:28:13;;;;;;;21.13;4.57;;;4.10;99.90;;;;;;4999750;28;20489;-91
2022/10/11 07:30:40;;;;;;;32.25;4.65;;;4.00;99.90;;;;;;4995657;28;20275;-91
2022/10/11 07:33:07;;;;;;;27.33;4.45;;;4.10;99.90;;;;;;4999831;28;20482;-92
2022/10/11 07:35:36;;;;;;;26.67;4.50;;;4.10;99.90;;;;;;4998578;28;20026;-90
2022/10/11 07:38:02;;;;;;;59.97;5.57;;;4.10;99.90;;;;;;4999567;28;20478;-92
2022/10/11 07:40:28;;;;;;;22.17;3.60;;;4.10;99.90;;;;;;4999378;28;20030;-90
2022/10/11 07:42:55;;;;;;;16.15;3.53;;;4.20;99.90;;;;;;4999237;28;20398;-92
2022/10/11 07:45:21;;;;;;;85.60;5.15;;;4.20;99.90;;;;;;4998894;28;20486;-90
2022/10/11 07:47:47;;;;;;;19.73;4.43;;;4.20;99.90;;;;;;5016536;28;20112;-91
2022/10/11 07:50:12;;;;;;;34.33;6.10;;;4.20;99.90;;;;;;4994016;28;20074;-91
2022/10/11 07:52:39;;;;;;;42.95;5.85;;;4.30;99.90;;;;;;4991715;28;20026;-93
2022/10/11 07:55:05;;;;;;;21.77;4.32;;;4.30;99.90;;;;;;4978774;28;20041;-92
2022/10/11 07:57:31;;;;;;;33.97;4.22;;;4.40;99.90;;;;;;4976759;28;20041;-91
2022/10/11 07:59:57;;;;;;;29.45;4.97;;;4.40;99.90;;;;;;4977408;28;20483;-92
2022/10/11 08:02:22;;;;;;;27.30;4.75;;;4.50;99.90;;;;;;4977962;28;20454;-93
2022/10/11 08:04:48;;;;;;;16.60;4.55;;;4.50;99.90;;;;;;4977625;28;20133;-94
2022/10/11 08:07:13;;;;;;;20.00;4.03;;;4.60;99.90;;;;;;4977311;28;20065;-93
2022/10/11 08:09:39;;;;;;;15.13;4.00;;;4.60;99.90;;;;;;4994962;28;20117;-93
2022/10/11 08:12:05;;;;;;;6.57;3.85;;;4.70;99.90;;;;;;4978647;28;20463;-93
2022/10/11 08:14:30;;;;;;;9.25;4.03;;;4.80;99.90;;;;;;4978153;28;20041;-92
2022/10/11 08:16:56;;;;;;;10.05;4.05;;;4.90;99.90;;;;;;4978419;28;20120;-91
2022/10/11 08:19:22;;;;;;;8.30;4.43;;;5.00;99.90;;;;;;4978110;28;20038;-91
2022/10/11 08:21:47;;;;;;;11.40;4.60;;;5.10;99.90;;;;;;4977886;28;20109;-91
2022/10/11 08:24:13;;;;;;;9.40;3.50;;;5.20;99.90;;;;;;4978249;28;20018;-93
2022/10/11 08:26:39;;;;;;;11.20;3.75;;;5.40;99.90;;;;;;4978266;28;20471;-92
2022/10/11 08:29:07;;;;;;;13.05;4.70;;;5.50;99.90;;;;;;4977943;28;20022;-92
2022/10/11 08:31:33;;;;;;;9.27;3.88;;;5.70;99.90;;;;;;4988356;28;20034;-92
2022/10/11 08:33:59;;;;;;;10.70;4.10;;;5.80;99.90;;;;;;4997593;28;20050;-92
2022/10/11 08:36:25;;;;;;;8.05;4.40;;;5.90;99.90;;;;;;4997642;28;20131;-92
2022/10/11 08:38:50;;;;;;;7.90;2.88;;;6.00;99.90;;;;;;4997152;28;20033;-92
2022/10/11 08:41:38;;;;;;;9.57;3.63;;;6.10;99.90;;;;;;4997139;28;20060;-92
2022/10/11 08:44:10;;;;;;;8.75;3.70;;;6.10;99.90;;;;;;4996795;28;20048;-91
2022/10/11 08:46:38;;;;;;;8.35;3.78;;;6.20;99.90;;;;;;4996798;28;20030;-92
2022/10/11 08:49:06;;;;;;;9.73;3.70;;;6.30;99.90;;;;;;4998127;28;20030;-92
2022/10/11 08:51:40;;;;;;;10.20;3.92;;;6.30;99.90;;;;;;4997898;28;20109;-91
2022/10/11 08:54:34;;;;;;;12.02;4.95;;;6.30;99.90;;;;;;5002279;28;20098;-92
2022/10/11 08:57:03;;;;;;;9.68;3.85;;;6.40;99.90;;;;;;5009747;28;20116;-92
2022/10/11 08:59:42;;;;;;;12.48;4.57;;;6.50;99.90;;;;;;5002271;28;20068;-92
2022/10/11 09:02:17;;;;;;;12.35;5.60;;;6.60;99.90;;;;;;5001526;28;20035;-91
2022/10/11 09:04:43;;;;;;;20.40;6.30;;;6.70;99.90;;;;;;5001572;28;20061;-92
2022/10/11 09:07:42;;;;;;;22.48;8.35;;;6.80;99.90;;;;;;5020434;28;20026;-91
2022/10/11 09:10:17;;;;;;;14.07;6.55;;;6.90;99.90;;;;;;5000803;28;20116;-92
2022/10/11 09:13:04;;;;;;;15.00;6.18;;;7.10;99.90;;;;;;4998648;28;20045;-92
2022/10/11 09:16:22;;;;;;;18.17;5.88;;;7.20;99.90;;;;;;4998892;28;20054;-91
2022/10/11 09:19:03;;;;;;;16.83;5.55;;;7.40;99.90;;;;;;4984912;28;20057;-93
2022/10/11 09:21:40;;;;;;;21.92;8.38;;;7.50;99.90;;;;;;4997036;28;20038;-93
2022/10/11 09:24:26;;;;;;;26.58;12.40;;;7.70;99.90;;;;;;4996657;28;20022;-92
2022/10/11 09:26:59;;;;;;;28.63;11.95;;;7.80;99.90;;;;;;4996725;28;20029;-94
2022/10/11 09:30:05;;;;;;;28.73;11.02;;;7.90;99.90;;;;;;4996600;28;20113;-93
2022/10/11 09:32:37;;;;;;;19.45;9.40;;;8.10;99.90;;;;;;4984981;28;20034;-94
2022/10/11 09:35:14;;;;;;;24.27;9.07;;;8.20;99.90;;;;;;4996204;28;20018;-93
2022/10/11 09:37:57;;;;;;;18.35;7.20;;;8.30;99.90;;;;;;4996354;28;20049;-93
2022/10/11 09:40:46;;;;;;;15.98;5.68;;;8.40;99.90;;;;;;4996009;28;20080;-93
2022/10/11 09:43:12;;;;;;;12.63;4.82;;;8.50;99.90;;;;;;4996124;28;20022;-92
2022/10/11 09:45:43;;;;;;;12.52;4.35;;;8.70;99.90;;;;;;4996623;28;20603;-93
2022/10/11 09:48:19;;;;;;;13.38;3.72;;;8.80;99.90;;;;;;4996477;28;20116;-93
2022/10/11 09:50:46;;;;;;;14.85;3.50;;;9.00;99.90;;;;;;4996709;28;20029;-93
2022/10/11 09:53:12;;;;;;;12.32;2.70;;;9.10;99.90;;;;;;4997463;28;20053;-92
2022/10/11 09:55:44;;;;;;;13.65;3.03;;;9.20;99.90;;;;;;4997619;28;20617;-92
2022/10/11 09:58:32;;;;;;;15.57;3.67;;;9.40;99.90;;;;;;4998140;28;20372;-93
2022/10/11 10:01:10;;;;;;;15.18;3.88;;;9.60;99.90;;;;;;5001860;28;20029;-93
2022/10/11 10:03:41;;;;;;;24.40;4.15;;;9.80;99.90;;;;;;5015575;28;20046;-92
2022/10/11 10:06:20;;;;;;;14.20;3.17;;;10.00;99.90;;;;;;5004316;28;20479;-92
2022/10/11 10:08:46;;;;;;;11.95;2.47;;;10.10;99.90;;;;;;5001384;28;20034;-92
2022/10/11 10:11:13;;;;;;;15.90;3.22;;;10.30;99.90;;;;;;5000657;28;20036;-92
2022/10/11 10:13:53;;;;;;;17.20;3.20;;;10.40;99.90;;;;;;5000272;28;20057;-93
2022/10/11 10:16:23;;;;;;;17.63;3.35;;;10.50;99.90;;;;;;5000864;28;20026;-93
2022/10/11 10:18:52;;;;;;;;;;;10.70;99.90;;;;;;5001142;28;20026;-94
2022/10/11 10:21:28;;;;;;;17.08;2.90;;;11.00;99.90;;;;;;5000453;28;19913;-93
2022/10/11 10:23:55;;;;;;;17.95;3.78;;;11.20;99.90;;;;;;5000591;28;20022;-94
2022/10/11 10:26:24;;;;;;;19.17;3.33;;;11.30;99.90;;;;;;5000516;28;20808;-92
2022/10/11 10:29:03;;;;;;;17.33;3.08;;;11.50;99.90;;;;;;4999763;28;20022;-92
2022/10/11 10:31:29;;;;;;;16.10;3.03;;;11.60;99.90;;;;;;4999703;28;20029;-91
2022/10/11 10:33:59;;;;;;;15.27;2.35;;;11.80;99.90;;;;;;5001332;28;20108;-93
2022/10/11 10:36:38;;;;;;;18.27;2.63;;;11.90;99.90;;;;;;5000241;28;20022;-93
2022/10/11 10:39:13;;;;;;;16.65;3.05;;;12.10;99.90;;;;;;4999826;28;20421;-94
2022/10/11 10:41:39;;;;;;;11.65;2.58;;;12.30;99.90;;;;;;5000227;28;20026;-93
2022/10/11 10:44:08;;;;;;;15.38;3.20;;;12.50;99.90;;;;;;5000264;28;20494;-93
2022/10/11 10:47:22;;;;;;;20.00;3.67;;;12.70;99.90;;;;;;5001802;28;20026;-91
2022/10/11 10:49:57;;;;;;;22.67;3.38;;;12.80;99.90;;;;;;4957156;29;20047;-93
2022/10/11 10:52:42;;;;;;;11.07;2.75;;;12.90;99.90;;;;;;4940151;29;20027;-92
2022/10/11 10:55:23;;;;;;;22.13;3.30;;;13.00;99.90;;;;;;4940744;29;20031;-91
2022/10/11 10:58:22;;;;;;;20.67;2.88;;;13.00;99.90;;;;;;4940464;29;20031;-93
2022/10/11 11:00:54;;;;;;;16.60;2.83;;;13.00;99.90;;;;;;4941481;29;20046;-92
2022/10/11 11:03:55;;;;;;;14.43;2.60;;;13.20;99.90;;;;;;4940513;29;20051;-91
2022/10/11 11:06:32;;;;;;;10.48;2.75;;;13.30;99.90;;;;;;4925692;29;20046;-92
2022/10/11 11:09:11;;;;;;;10.88;2.20;;;13.60;99.90;;;;;;4939576;28;20031;-92
2022/10/11 11:12:06;;;;;;;10.93;2.10;;;13.90;99.90;;;;;;4936691;29;20059;-93
2022/10/11 11:14:51;;;;;;;20.60;2.50;;;14.10;99.90;;;;;;4940214;29;20035;-92
2022/10/11 11:17:29;;;;;;;11.85;1.92;;;14.20;99.90;;;;;;4954247;29;20047;-92
2022/10/11 11:20:20;;;;;;;16.48;2.35;;;14.40;99.90;;;;;;4950942;28;20065;-92
2022/10/11 11:23:00;;;;;;;16.55;2.15;;;14.60;99.90;;;;;;4983116;28;20027;-92
2022/10/11 11:25:54;;;;;;;14.23;2.42;;;14.80;99.90;;;;;;4995669;28;20039;-92
2022/10/11 11:28:47;;;;;;;17.90;3.10;;;15.00;99.90;;;;;;5011919;28;20497;-92
2022/10/11 11:31:30;;;;;;;14.55;2.42;;;15.30;99.90;;;;;;4972491;28;20022;-92
2022/10/11 11:34:02;;;;;;;11.05;2.25;;;15.40;99.90;;;;;;5006341;28;20026;-93
2022/10/11 11:36:50;;;;;;;6.93;2.22;;;15.40;99.90;;;;;;4996988;28;20041;-92
2022/10/11 11:39:22;;;;;;;14.55;2.55;;;15.80;99.90;;;;;;5001586;28;20041;-92
2022/10/11 11:42:13;;;;;;;11.07;1.80;;;16.10;99.90;;;;;;5013780;28;20026;-92
2022/10/11 11:44:46;;;;;;;6.63;1.85;;;16.50;98.10;;;;;;4990959;28;20042;-92
2022/10/11 11:47:28;;;;;;;9.82;1.55;;;16.60;96.70;;;;;;5008120;28;20113;-94
2022/10/11 11:50:14;;;;;;;8.55;1.45;;;16.50;94.50;;;;;;5007923;28;20030;-92
2022/10/11 11:52:47;;;;;;;7.78;1.70;;;16.30;93.00;;;;;;5005048;28;20018;-93
2022/10/11 11:55:26;;;;;;;8.32;1.63;;;16.00;92.10;;;;;;4991964;28;20038;-93
2022/10/11 11:58:29;;;;;;;8.23;1.80;;;15.90;91.90;;;;;;4991114;28;20023;-90
2022/10/11 12:01:01;;;;;;;7.20;1.40;;;15.80;90.90;;;;;;4984361;28;20070;-93
2022/10/11 12:03:35;;;;;;;8.63;1.40;;;16.00;90.20;;;;;;4981010;28;20050;-94
2022/10/11 12:06:13;;;;;;;8.85;1.30;;;16.00;89.00;;;;;;4981157;28;20042;-92
2022/10/11 12:09:00;;;;;;;7.85;1.50;;;16.00;87.00;;;;;;4980522;28;20024;-93
2022/10/11 12:11:51;;;;;;;7.35;2.38;;;15.90;86.00;;;;;;4979619;28;20050;-93
2022/10/11 12:14:27;;;;;;;5.15;1.33;;;15.80;85.40;;;;;;4969946;28;20039;-93
2022/10/11 12:17:18;;;;;;;11.95;1.75;;;15.60;84.60;;;;;;4979733;28;20026;-92
2022/10/11 12:20:02;;;;;;;8.23;1.63;;;15.60;84.40;;;;;;4979969;28;20029;-93
2022/10/11 12:22:28;;;;;;;6.05;1.13;;;15.50;84.30;;;;;;4978315;28;20133;-94
2022/10/11 12:25:00;;;;;;;6.53;1.13;;;15.30;83.90;;;;;;4979871;28;20169;-93
2022/10/11 12:27:37;;;;;;;8.93;1.33;;;15.20;83.80;;;;;;4980441;28;20027;-93
2022/10/11 12:30:04;;;;;;;9.90;2.03;;;15.10;83.90;;;;;;4979208;28;20034;-93
2022/10/11 12:32:37;;;;;;;5.07;1.08;;;15.30;84.00;;;;;;4979751;28;20467;-92
2022/10/11 12:35:53;;;;;;;9.85;1.30;;;15.60;82.60;;;;;;4979739;28;20476;-92
2022/10/11 12:38:32;;;;;;;7.38;1.58;;;15.80;81.10;;;;;;4917773;29;20032;-93
2022/10/11 12:41:05;;;;;;;8.38;1.15;;;15.80;80.60;;;;;;4936243;29;20040;-93
2022/10/11 12:43:55;;;;;;;6.10;1.00;;;15.70;79.90;;;;;;4920531;29;20040;-93
2022/10/11 12:46:27;;;;;;;8.02;1.25;;;15.60;78.80;;;;;;4920499;29;20047;-93
2022/10/11 12:49:19;;;;;;;6.68;1.23;;;15.50;79.20;;;;;;4920537;29;20024;-93
2022/10/11 12:52:17;;;;;;;6.90;1.17;;;15.50;78.80;;;;;;4920271;29;20095;-92
2022/10/11 12:54:42;;;;;;;8.10;1.13;;;15.50;77.50;;;;;;4911642;29;20067;-92
2022/10/11 12:57:08;;;;;;;8.35;1.50;;;15.50;77.70;;;;;;4916558;29;20063;-92
2022/10/11 12:59:40;;;;;;;7.40;0.95;;;15.40;77.90;;;;;;4919218;29;20047;-93
2022/10/11 13:02:27;;;;;;;3.15;1.13;;;15.40;78.20;;;;;;4919182;29;20403;-91
2022/10/11 13:05:14;;;;;;;5.82;1.35;;;15.30;78.60;;;;;;4919042;29;20134;-92
2022/10/11 13:07:40;;;;;;;5.40;1.33;;;15.30;78.80;;;;;;4919423;29;20118;-91
2022/10/11 13:10:06;;;;;;;3.75;1.13;;;15.50;78.60;;;;;;4994135;28;20023;-91
2022/10/11 13:12:40;;;;;;;5.72;1.05;;;15.70;78.00;;;;;;4993827;28;20129;-92